Data for 06/29/2013

Time Sea-Level Adjusted Pressure Absolute Pressure Temperature Relative Humidity Dew Point   
(mb) (inHg) (mb) (inHg) (C) (F) (%) (C) (F)
00:05 1025 30.27 854 25.22 21.2 70.2 53 11.5 52.7
00:10 1025 30.27 854 25.22 21.1 70 53 11.4 52.4
00:15 1025 30.27 854 25.22 21.1 70 53 11.3 52.4
00:20 1025 30.27 854 25.22 21.1 69.9 53 11.4 52.4
00:25 1025 30.27 854 25.22 21 69.7 54 11.3 52.4
00:30 1025 30.27 854 25.22 21 69.8 53 11.3 52.3
00:35 1025 30.27 854 25.22 20.9 69.6 54 11.4 52.5
00:40 1025 30.27 854 25.22 20.8 69.4 55 11.4 52.5
00:45 1025 30.27 854 25.22 20.7 69.3 54 11.3 52.4
00:50 1025 30.27 854 25.22 20.7 69.2 55 11.4 52.4
00:55 1025 30.27 854 25.22 20.6 69.1 55 11.3 52.4
01:00 1025 30.27 854 25.22 20.5 69 55 11.4 52.5
01:05 1025 30.27 854 25.22 20.4 68.7 56 11.4 52.5
01:10 1025 30.27 854 25.22 20.3 68.6 56 11.4 52.5
01:15 1025 30.27 854 25.22 20.2 68.4 57 11.4 52.6
01:20 1025 30.27 854 25.22 20.1 68.2 57 11.4 52.5
01:25 1025 30.27 854 25.22 20 68.1 57 11.3 52.4
01:30 1025 30.27 854 25.22 20 67.9 57 11.4 52.5
01:35 1025 30.27 854 25.22 19.9 67.8 57 11.3 52.3
01:40 1025 30.27 854 25.22 19.9 67.8 57 11.2 52.2
01:45 1025 30.27 854 25.22 19.8 67.7 58 11.3 52.4
01:50 1025 30.27 854 25.22 19.8 67.6 58 11.3 52.3
01:55 1025 30.27 855 25.25 19.7 67.5 57 11.1 52
02:00 1025 30.27 855 25.25 19.7 67.5 57 11.2 52.1
02:05 1025 30.27 855 25.25 19.7 67.4 58 11.2 52.2
02:10 1025 30.27 855 25.25 19.6 67.2 58 11.2 52.1
02:15 1025 30.27 855 25.25 19.5 67 58 11.2 52.2
02:20 1025 30.27 855 25.25 19.3 66.7 59 11.1 52
02:25 1025 30.27 855 25.25 19.2 66.6 59 11.1 52
02:30 1025 30.27 855 25.25 19.2 66.5 59 11.1 51.9
02:35 1025 30.27 855 25.25 19.2 66.6 58 10.9 51.6
02:40 1025 30.27 855 25.25 19.2 66.6 58 10.9 51.6
02:45 1025 30.27 855 25.25 19.3 66.7 58 10.9 51.6
02:50 1025 30.27 855 25.25 19.2 66.5 58 10.8 51.4
02:55 1025 30.27 855 25.25 19.2 66.6 58 10.8 51.5
03:00 1025 30.27 854 25.22 19.2 66.5 58 10.8 51.4
03:05 1025 30.27 854 25.22 19.1 66.4 58 10.7 51.2
03:10 1025 30.27 854 25.22 19.2 66.5 57 10.7 51.2
03:15 1025 30.27 854 25.22 19.1 66.4 58 10.7 51.3
03:20 1025 30.27 854 25.22 19.1 66.3 58 10.7 51.2
03:25 1025 30.27 854 25.22 19 66.1 58 10.6 51.1
03:30 1025 30.27 854 25.22 18.9 66.1 58 10.6 51.2
03:35 1025 30.27 854 25.22 18.9 65.9 58 10.6 51.1
03:40 1025 30.27 854 25.22 18.9 66 58 10.5 51
03:45 1025 30.27 854 25.22 18.8 65.9 58 10.6 51.1
03:50 1025 30.27 855 25.25 18.9 66 57 10.4 50.8
03:55 1025 30.27 855 25.25 18.9 66.1 58 10.5 51
04:00 1025 30.27 855 25.25 18.8 65.8 59 10.6 51.1
04:05 1025 30.27 855 25.25 18.5 65.3 60 10.8 51.4
04:10 1025 30.27 855 25.25 18.1 64.6 62 10.8 51.5
04:15 1025 30.27 855 25.25 17.7 63.9 64 10.8 51.5
04:20 1025 30.27 855 25.25 17.4 63.4 65 10.8 51.5
04:25 1025 30.27 855 25.25 17.2 63 65 10.8 51.4
04:30 1025 30.27 854 25.22 17.1 62.8 66 10.8 51.4
04:35 1025 30.27 854 25.22 17 62.6 66 10.7 51.3
04:40 1025 30.27 854 25.22 17 62.6 66 10.6 51.1
04:45 1025 30.27 854 25.22 17.2 63 64 10.3 50.6
04:50 1025 30.27 854 25.22 17.6 63.6 63 10.4 50.8
04:55 1025 30.27 854 25.22 17.7 63.8 62 10.3 50.5
05:00 1025 30.27 854 25.22 17.9 64.2 60 10.2 50.4
05:05 1025 30.27 854 25.22 18 64.4 60 10.3 50.5
05:10 1025 30.27 854 25.22 18.1 64.5 60 10.3 50.5
05:15 1025 30.27 854 25.22 18.1 64.6 60 10.3 50.5
05:20 1025 30.27 854 25.22 18.2 64.7 60 10.3 50.6
05:25 1025 30.27 854 25.22 18.2 64.7 60 10.4 50.7
05:30 1025 30.27 854 25.22 18 64.4 61 10.5 51
05:35 1025 30.27 854 25.22 17.9 64.3 62 10.5 51
05:40 1025 30.27 854 25.22 18 64.3 61 10.5 50.9
05:45 1025 30.27 855 25.25 18 64.5 61 10.5 51
05:50 1025 30.27 855 25.25 18.2 64.7 61 10.7 51.2
05:55 1025 30.27 855 25.25 18.3 64.9 60 10.6 51
06:00 1025 30.27 855 25.25 18.5 65.3 60 10.7 51.2
06:05 1025 30.27 855 25.25 18.6 65.5 59 10.7 51.2
06:10 1025 30.27 855 25.25 18.8 65.9 60 10.9 51.6
06:15 1025 30.27 855 25.25 18.9 66.1 60 11.1 51.9
06:20 1025 30.27 855 25.25 18.9 65.9 60 11 51.9
06:25 1025 30.27 855 25.25 18.9 66 60 11.2 52.1
06:30 1026 30.3 855 25.25 19.1 66.4 60 11.3 52.3
06:35 1026 30.3 855 25.25 19 66.3 59 11 51.8
06:40 1026 30.3 855 25.25 18.8 65.8 58 10.5 50.8
06:45 1026 30.3 855 25.25 18.7 65.7 58 10.5 50.9
06:50 1026 30.3 855 25.25 19.4 67 55 10.4 50.7
06:55 1026 30.3 855 25.25 20.3 68.5 54 10.7 51.3
07:00 1025 30.27 855 25.25 20.6 69.1 54 11 51.8
07:05 1025 30.27 855 25.25 20.6 69.2 53 10.9 51.6
07:10 1025 30.27 855 25.25 20.8 69.5 53 11.2 52.1
07:15 1025 30.27 855 25.25 20.8 69.5 53 11 51.9
07:20 1025 30.27 855 25.25 21.2 70.2 52 11 51.9
07:25 1025 30.27 854 25.22 21.2 70.2 52 11 51.9
07:30 1025 30.27 854 25.22 21.8 71.2 52 11.5 52.7
07:35 1025 30.27 854 25.22 21.6 71 53 11.7 53.1
07:40 1025 30.27 854 25.22 21.9 71.5 50 11.1 52
07:45 1025 30.27 854 25.22 22.3 72.1 50 11.6 52.9
07:50 1025 30.27 854 25.22 22.7 72.9 47 11.1 52
07:55 1025 30.27 854 25.22 22.4 72.4 49 11.3 52.3
08:00 1025 30.27 854 25.22 22.1 71.8 49 11.1 52
08:05 1025 30.27 854 25.22 22.7 72.9 49 11.7 53.1
08:10 1025 30.27 854 25.22 23 73.3 47 11.3 52.3
08:15 1025 30.27 854 25.22 23.1 73.6 48 11.8 53.3
08:20 1025 30.27 854 25.22 23.2 73.8 47 11.5 52.7
08:25 1025 30.27 854 25.22 23.9 74.9 46 11.8 53.3
08:30 1025 30.27 854 25.22 23.4 74.2 49 12.4 54.3
08:35 1025 30.27 854 25.22 22.2 72 50 11.4 52.6
08:40 1025 30.27 854 25.22 22.9 73.1 49 11.9 53.4
08:45 1025 30.27 854 25.22 22.2 71.9 51 11.6 52.9
08:50 1025 30.27 854 25.22 23 73.4 47 11.3 52.3
08:55 1025 30.27 854 25.22 24.4 76 44 11.5 52.7
09:00 1025 30.27 854 25.22 24.2 75.6 46 11.9 53.4
09:05 1025 30.27 854 25.22 23.6 74.4 45 11.2 52.2
09:10 1025 30.27 854 25.22 24.4 75.9 44 11.7 53
09:15 1025 30.27 854 25.22 24.3 75.8 47 12.5 54.5
09:20 1025 30.27 854 25.22 24.9 76.8 42 11.5 52.6
09:25 1025 30.27 854 25.22 25.7 78.3 42 12.1 53.7
09:30 1024 30.24 854 25.22 25.3 77.6 44 12.4 54.3
09:35 1024 30.24 854 25.22 24.9 76.8 44 11.9 53.5
09:40 1024 30.24 854 25.22 25.1 77.2 43 11.8 53.3
09:45 1024 30.24 854 25.22 26 78.7 41 12 53.6
09:50 1024 30.24 854 25.22 26.2 79.2 42 12.4 54.3
09:55 1024 30.24 854 25.22 25.4 77.7 44 12.3 54.2
10:00 1024 30.24 853 25.19 25.4 77.6 42 11.6 52.8
10:05 1024 30.24 853 25.19 25.8 78.5 42 12.1 53.8
10:10 1024 30.24 853 25.19 26 78.8 42 12.3 54.2
10:15 1024 30.24 854 25.22 25.3 77.6 46 12.9 55.2
10:20 1024 30.24 854 25.22 25.4 77.7 44 12.5 54.6
10:25 1024 30.24 854 25.22 25.1 77.2 45 12.7 54.9
10:30 1024 30.24 853 25.19 24.8 76.6 46 12.5 54.5
10:35 1024 30.24 853 25.19 25.7 78.2 45 13.1 55.5
10:40 1024 30.24 853 25.19 26 78.7 43 12.8 55
10:45 1024 30.24 853 25.19 26.8 80.2 41 12.6 54.6
10:50 1024 30.24 853 25.19 27.2 80.9 41 13.2 55.7
10:55 1024 30.24 853 25.19 26.4 79.5 42 12.7 54.9
11:00 1024 30.24 853 25.19 27.3 81.2 40 13 55.4
11:05 1024 30.24 853 25.19 27.6 81.8 40 13.1 55.5
11:10 1024 30.24 853 25.19 27.8 82 40 13.2 55.8
11:15 1024 30.24 853 25.19 26.8 80.2 42 12.9 55.2
11:20 1024 30.24 853 25.19 27.2 81 41 13 55.4
11:25 1024 30.24 853 25.19 27.8 82 39 12.7 54.8
11:30 1024 30.24 853 25.19 28 82.4 39 13.1 55.6
11:35 1024 30.24 853 25.19 28.4 83 38 12.8 55
11:40 1024 30.24 853 25.19 29 84.1 37 13 55.4
11:45 1024 30.24 853 25.19 28.1 82.7 39 13 55.3
11:50 1024 30.24 853 25.19 27.9 82.2 41 13.5 56.3
11:55 1024 30.24 853 25.19 27.6 81.6 40 12.8 55.1
12:00 1023 30.21 853 25.19 27.9 82.2 36 11.9 53.3
12:05 1023 30.21 853 25.19 28.3 82.9 38 12.9 55.2
12:10 1023 30.21 853 25.19 28.5 83.2 38 13.1 55.7
12:15 1023 30.21 853 25.19 28.4 83.2 37 12.6 54.7
12:20 1023 30.21 852 25.16 28.4 83.2 37 12.7 54.8
12:25 1023 30.21 852 25.16 28.2 82.8 38 12.8 55
12:30 1023 30.21 852 25.16 28.8 83.9 34 11.6 52.9
12:35 1023 30.21 852 25.16 29.1 84.5 33 11.5 52.7
12:40 1023 30.21 852 25.16 28.9 83.9 35 12.3 54.1
12:45 1023 30.21 852 25.16 29.1 84.4 33 11.7 53.1
12:50 1023 30.21 852 25.16 29.8 85.6 33 11.9 53.5
12:55 1023 30.21 852 25.16 30.1 86.1 33 12.2 53.9
13:00 1023 30.21 852 25.16 30.3 86.5 33 12.6 54.7
13:05 1023 30.21 852 25.16 29.7 85.4 33 12.2 53.9
13:10 1023 30.21 852 25.16 30.5 87 32 12.2 53.9
13:15 1022 30.18 852 25.16 31.4 88.4 30 12 53.6
13:20 1022 30.18 852 25.16 31 87.9 31 12.1 53.8
13:25 1022 30.18 852 25.16 30.4 86.7 32 12.3 54.1
13:30 1022 30.18 851 25.13 29.9 85.8 31 11.2 52.2
13:35 1022 30.18 851 25.13 30.8 87.4 30 11.6 52.8
13:40 1022 30.18 851 25.13 30.8 87.5 31 11.9 53.4
13:45 1022 30.18 851 25.13 30.8 87.4 30 11.6 52.8
13:50 1022 30.18 851 25.13 31 87.7 28 10.5 50.8
13:55 1022 30.18 851 25.13 30.6 87.1 29 10.6 51.1
14:00 1022 30.18 851 25.13 30.5 86.8 28 10 50.1
14:05 1022 30.18 851 25.13 30.9 87.6 27 9.9 49.8
14:10 1022 30.18 851 25.13 30.5 86.9 27 9.7 49.5
14:15 1022 30.18 851 25.13 31.2 88.1 26 10 50
14:20 1022 30.18 851 25.13 31.4 88.4 25 9.5 49.2
14:25 1022 30.18 851 25.13 31.1 87.9 27 10.2 50.4
14:30 1022 30.18 851 25.13 30.5 86.9 27 9.6 49.3
14:35 1022 30.18 851 25.13 30.7 87.3 27 10.1 50.3
14:40 1022 30.18 851 25.13 30.5 86.9 27 9.9 49.8
14:45 1022 30.18 851 25.13 30.3 86.6 27 9.8 49.7
14:50 1022 30.18 851 25.13 29.9 85.8 28 9.7 49.5
14:55 1022 30.18 851 25.13 29.4 84.8 28 9.5 49
15:00 1022 30.18 851 25.13 29 84.1 29 9.3 48.7
15:05 1022 30.18 851 25.13 28.6 83.4 29 9.2 48.5
15:10 1022 30.18 851 25.13 28.3 82.9 30 9.5 49.1
15:15 1022 30.18 851 25.13 28.2 82.7 30 9 48.3
15:20 1021 30.15 851 25.13 28.1 82.5 30 9 48.3
15:25 1021 30.15 851 25.13 28 82.3 29 8.4 47.2
15:30 1021 30.15 851 25.13 27.8 82.1 29 8.4 47.1
15:35 1021 30.15 851 25.13 27.8 82 29 8.6 47.4
15:40 1021 30.15 850 25.1 27.7 81.9 29 8.2 46.7
15:45 1021 30.15 850 25.1 27.8 82 29 8.3 46.9
15:50 1021 30.15 850 25.1 27.7 81.9 28 8.1 46.5
15:55 1021 30.15 850 25.1 27.7 81.8 30 8.7 47.6
16:00 1021 30.15 850 25.1 27.7 81.9 30 8.6 47.5
16:05 1021 30.15 851 25.13 27.8 82 31 9.5 49.1
16:10 1022 30.18 851 25.13 27.7 81.9 30 8.7 47.6
16:15 1022 30.18 851 25.13 27.7 81.9 30 8.8 47.9
16:20 1023 30.21 852 25.16 27.2 81 41 13 55.5
16:25 1023 30.21 852 25.16 23.3 74 56 14.2 57.6
16:30 1024 30.24 853 25.19 20.7 69.3 58 12.2 54
16:35 1026 30.3 855 25.25 20.3 68.5 58 11.9 53.4
16:40 1026 30.3 855 25.25 16.4 61.5 85 13.8 56.9
16:45 1027 30.33 856 25.28 12.9 55.1 92 11.5 52.8
16:50 1027 30.33 856 25.28 12.9 55.3 94 12 53.5
16:55 1027 30.33 856 25.28 13.2 55.8 94 12.3 54.2
17:00 1027 30.33 856 25.28 13.6 56.4 94 12.7 54.8
17:05 1027 30.33 857 25.31 13.7 56.6 93 12.6 54.6
17:10 1027 30.33 856 25.28 13.9 57 94 12.9 55.2
17:15 1027 30.33 856 25.28 13.9 57 94 12.9 55.2
17:20 1027 30.33 856 25.28 13.9 57 94 12.9 55.1
17:25 1026 30.3 856 25.28 13.9 57 94 12.9 55.2
17:30 1026 30.3 855 25.25 13.9 57.1 92 12.7 54.9
17:35 1026 30.3 855 25.25 13.5 56.3 93 12.4 54.4
17:40 1026 30.3 855 25.25 13.4 56.1 93 12.3 54.1
17:45 1026 30.3 855 25.25 13.4 56.1 93 12.3 54.2
17:50 1026 30.3 855 25.25 13.4 56.2 93 12.3 54.1
17:55 1026 30.3 855 25.25 13.4 56.2 92 12.2 54
18:00 1025 30.27 855 25.25 13.6 56.4 92 12.3 54.1
18:05 1025 30.27 854 25.22 13.7 56.7 92 12.4 54.4
18:10 1025 30.27 854 25.22 13.9 57.1 91 12.6 54.6
18:15 1024 30.24 854 25.22 14.3 57.7 90 12.6 54.6
18:20 1024 30.24 853 25.19 14.8 58.6 86 12.4 54.3
18:25 1023 30.21 852 25.16 15.5 59.9 81 12.3 54.2
18:30 1023 30.21 852 25.16 15.7 60.3 81 12.6 54.6
18:35 1022 30.18 851 25.13 16.1 61 76 11.9 53.4
18:40 1022 30.18 851 25.13 16.4 61.5 79 12.7 54.9
18:45 1023 30.21 852 25.16 16.2 61.1 79 12.5 54.5
18:50 1023 30.21 852 25.16 16.1 60.9 79 12.4 54.4
18:55 1023 30.21 852 25.16 16.1 60.9 77 12.1 53.8
19:00 1023 30.21 852 25.16 16.4 61.5 76 12.2 54
19:05 1023 30.21 852 25.16 16.3 61.4 77 12.3 54.2
19:10 1023 30.21 852 25.16 16.4 61.4 76 12.3 54.1
19:15 1023 30.21 852 25.16 16.4 61.5 76 12.3 54.1
19:20 1023 30.21 852 25.16 16.4 61.5 76 12.2 54
19:25 1023 30.21 852 25.16 16.3 61.3 76 12.1 53.7
19:30 1023 30.21 852 25.16 16.4 61.5 75 11.9 53.4
19:35 1023 30.21 852 25.16 16.6 62 73 11.8 53.3
19:40 1023 30.21 852 25.16 16.7 62 73 11.8 53.2
19:45 1023 30.21 852 25.16 16.8 62.2 73 12 53.7
19:50 1023 30.21 852 25.16 16.6 62 73 11.8 53.3
19:55 1023 30.21 852 25.16 16.8 62.2 71 11.5 52.8
20:00 1023 30.21 852 25.16 16.8 62.3 71 11.7 53
20:05 1023 30.21 853 25.19 16.7 62 72 11.6 53
20:10 1023 30.21 853 25.19 16.7 62.1 71 11.5 52.7
20:15 1023 30.21 853 25.19 16.8 62.3 71 11.5 52.7
20:20 1024 30.24 853 25.19 16.9 62.4 70 11.4 52.6
20:25 1024 30.24 853 25.19 16.9 62.5 69 11.3 52.4
20:30 1024 30.24 853 25.19 16.9 62.4 69 11.3 52.4
20:35 1024 30.24 853 25.19 16.9 62.4 68 11.1 51.9
20:40 1024 30.24 853 25.19 17.2 62.9 67 11.2 52.1
20:45 1024 30.24 853 25.19 17.1 62.8 69 11.4 52.4
20:50 1024 30.24 853 25.19 17.2 63 67 11.1 52
20:55 1024 30.24 853 25.19 17 62.5 68 11.2 52.1
21:00 1024 30.24 853 25.19 16.8 62.2 70 11.4 52.5
21:05 1024 30.24 853 25.19 16.5 61.6 72 11.4 52.5
21:10 1024 30.24 853 25.19 16.4 61.6 71 11.3 52.3
21:15 1024 30.24 854 25.22 16.5 61.7 70 11.1 52
21:20 1024 30.24 854 25.22 16.4 61.6 72 11.4 52.6
21:25 1025 30.27 854 25.22 16.2 61.2 73 11.4 52.6
21:30 1025 30.27 854 25.22 16.1 60.9 74 11.5 52.7
21:35 1025 30.27 854 25.22 16 60.8 73 11.3 52.4
21:40 1025 30.27 854 25.22 16 60.8 75 11.5 52.7
21:45 1025 30.27 854 25.22 15.8 60.4 76 11.6 52.8
21:50 1024 30.24 854 25.22 15.7 60.2 76 11.5 52.7
21:55 1024 30.24 854 25.22 15.7 60.2 77 11.6 52.9
22:00 1024 30.24 853 25.19 15.6 60.1 77 11.7 53.1
22:05 1024 30.24 853 25.19 15.4 59.6 79 11.7 53
22:10 1024 30.24 853 25.19 15.3 59.5 77 11.3 52.4
22:15 1024 30.24 853 25.19 15.4 59.6 77 11.4 52.6
22:20 1024 30.24 853 25.19 15.3 59.5 77 11.2 52.2
22:25 1024 30.24 853 25.19 15.2 59.4 77 11.3 52.4
22:30 1024 30.24 853 25.19 15.2 59.4 77 11.2 52.2
22:35 1024 30.24 853 25.19 15.3 59.5 77 11.3 52.4
22:40 1024 30.24 853 25.19 15.4 59.8 76 11.3 52.4
22:45 1024 30.24 853 25.19 15.5 60 76 11.3 52.4
22:50 1024 30.24 853 25.19 15.5 59.8 76 11.3 52.4
22:55 1024 30.24 853 25.19 15.4 59.7 78 11.6 52.8
23:00 1024 30.24 853 25.19 15.4 59.6 76 11.2 52.2
23:05 1023 30.21 853 25.19 15.7 60.3 74 11.2 52.1
23:10 1023 30.21 852 25.16 15.9 60.6 73 11.1 52
23:15 1023 30.21 852 25.16 16 60.8 72 11.1 52
23:20 1023 30.21 852 25.16 16.1 60.9 72 11.2 52.1
23:25 1023 30.21 852 25.16 15.9 60.7 74 11.3 52.4
23:30 1023 30.21 852 25.16 15.7 60.2 74 11 51.8
23:35 1023 30.21 852 25.16 15.8 60.4 72 10.9 51.6
23:40 1023 30.21 852 25.16 16 60.7 72 10.9 51.6
23:45 1023 30.21 852 25.16 15.9 60.6 72 10.9 51.7
23:50 1023 30.21 852 25.16 16 60.8 72 11 51.8
23:55 1023 30.21 852 25.16 16 60.7 71 10.8 51.5
24:00 1023 30.21 852 25.16 16 60.8 72 11 51.8